Glacier, Washington
Current Conditions -  °F | °C
As of 3:00 PM on Saturday 25 Oct 2014 (Local Time) from CYXX Reporting Station
Light Rain Light Rain  
Wind Chill: 52°   Ceiling: 3500
Heat Index: 52°   Visibility: 20mi
Dew Point: 48°   Wind: 6mph
Humidity: 88%   Direction: 50°NE
Pressure: 29.35"   Gusts: NA
Location:  48.8512°N, 121.903°W
Report Text: CYXX 252200Z 05005KT 010V100 20SM -RA BKN035 OVC100 11/09 A2935 RMK SC5AC3 PRESFR SLP938 DENSITY ALT 400FT
Loading
Personal Weather Stations






























Interactive Weather Map
Tropical Storm Tracking
New forecast layout! Learn more

10-Day Weather Forecast

Advertisements
Track Severe Weather on mobile